Página principal
METAR-TAF:

METAR-TAF

Aeroportos :

Samaná, República Dominicana

latitude: 19-16-12N, longitude: 69-44-15W, altura: 4 m

Observação actual do tempo

O boletim foi feito há 23 minutos, às 22:00 UTC
Vento 4 kt de este
Temperatura 27°C
Humidade 74%
Pressão 1014 hPa
Visibilidade 10 km ou mais
Nuvens dispersasa uma altura de 2000 ft

METAR: MDCY 022200Z 09004KT 9999 SCT020 27/22 Q1014

Hora: 18:23 (22:23 UTC)

Previsão

O boletim foi feito há 6 horas e 23 minutos, às 16:00 UTC
Previsão válida de 02 às 18 UTC a 03 às 18 UTC
Vento 6 kt de es-nordeste
Visibilidade 10 km ou mais
Nuvens dispersasa uma altura de 2000 ft
Probabilidade 30%
de 02 às 19 UTC a 03 às 00 UTC
Visibilidade: 8000 m
Nuvens dispersasa uma altura de 1800 ft
Nuvens dispersasa uma altura de 7000 ft
aguaceiros fracos de chuva

TAF: MDCY 021600Z 0218/0318 06006KT 9999 SCT020 PROB30 0219/0300 8000 -SHRA SCT018 SCT070

Observações e previsões do tempo de mais de 4000 aeroportos (mensagens METAR e TAF).

As estações disponíveis são os pontos amarelos e vermelhos sobre o mapa.

Mova o rato sobre o mapa para ver o nome da estação.

Depois clique no ponto para visualizar as observações e previsões meteorológicas.

Para alterar o mapa : clique nos botões verdes com uma cruz preta para aumentar o zoom; no botão verde com uma pitada de zoom; ou nas setas verdes para mapas adjacentes.


METAR-TAF: